Time;durP1;ratioP1;P1;durP2;ratioP2;P2;SDS_P1;SDS_P2;PMS_P1;PMS_P2;Temp;Humidity;BMP_temperature;BMP_pressure;BME280_temperature;BME280_humidity;BME280_pressure;Samples;Min_cycle;Max_cycle;Signal;HPM_P1;HPM_P2
2022/06/03 00:02:16;;;;;;;10.05;8.32;;;16.60;99.90;;;;;;5271344;28;20024;-69
2022/06/03 00:05:05;;;;;;;11.35;8.00;;;16.70;99.90;;;;;;5267282;28;20071;-69
2022/06/03 00:08:03;;;;;;;13.35;8.15;;;16.40;99.90;;;;;;5270232;28;20031;-69
2022/06/03 00:11:02;;;;;;;11.15;8.30;;;16.60;99.90;;;;;;5270035;28;20036;-69
2022/06/03 00:14:09;;;;;;;11.93;7.75;;;16.60;99.90;;;;;;5270916;28;20040;-69
2022/06/03 00:17:01;;;;;;;10.00;8.27;;;16.30;99.90;;;;;;5271326;28;20471;-69
2022/06/03 00:19:56;;;;;;;14.07;9.75;;;16.30;99.90;;;;;;5271125;28;20063;-68
2022/06/03 00:22:46;;;;;;;18.08;10.40;;;16.60;99.90;;;;;;5271212;28;20097;-69
2022/06/03 00:25:41;;;;;;;14.27;10.00;;;16.70;99.90;;;;;;5271124;28;20123;-68
2022/06/03 00:28:35;;;;;;;14.07;9.43;;;16.40;99.90;;;;;;5269743;28;20031;-69
2022/06/03 00:31:54;;;;;;;12.52;8.77;;;16.30;99.90;;;;;;5270849;28;20029;-69
2022/06/03 00:34:51;;;;;;;13.23;9.68;;;16.40;99.90;;;;;;5185955;28;20037;-69
2022/06/03 00:37:47;;;;;;;13.65;9.15;;;16.50;99.90;;;;;;5270802;28;20028;-75
2022/06/03 00:40:30;;;;;;;32.22;9.70;;;16.40;99.90;;;;;;5270846;28;20016;-69
2022/06/03 00:43:25;;;;;;;27.50;11.02;;;16.50;99.90;;;;;;5269201;28;20100;-69
2022/06/03 00:46:05;;;;;;;19.08;9.63;;;16.40;99.90;;;;;;5270585;28;20052;-75
2022/06/03 00:49:14;;;;;;;16.05;9.82;;;16.30;99.90;;;;;;5270530;28;20024;-69
2022/06/03 00:52:22;;;;;;;71.65;9.77;;;16.40;99.90;;;;;;5255977;28;20111;-69
2022/06/03 00:55:28;;;;;;;10.57;9.40;;;16.20;99.90;;;;;;5270508;28;20020;-75
2022/06/03 00:58:07;;;;;;;14.45;9.93;;;16.10;99.90;;;;;;5214137;28;20047;-69
2022/06/03 01:00:53;;;;;;;16.88;10.63;;;16.20;99.90;;;;;;5270455;28;20077;-69
2022/06/03 01:03:46;;;;;;;14.00;10.18;;;16.20;99.90;;;;;;5268894;28;20028;-75
2022/06/03 01:06:50;;;;;;;13.63;9.20;;;16.00;99.90;;;;;;5268946;28;20111;-69
2022/06/03 01:09:38;;;;;;;4.05;2.70;;;16.00;99.90;;;;;;5270190;28;20040;-69
2022/06/03 01:12:35;;;;;;;12.65;8.90;;;16.10;99.90;;;;;;5269997;28;20036;-68
2022/06/03 01:15:40;;;;;;;14.52;9.50;;;16.10;99.90;;;;;;5268713;28;20476;-69
2022/06/03 01:18:40;;;;;;;14.40;9.02;;;16.00;99.90;;;;;;5269986;28;20012;-72
2022/06/03 01:21:29;;;;;;;14.05;9.30;;;15.90;99.90;;;;;;5270026;28;20043;-69
2022/06/03 01:24:37;;;;;;;17.02;10.27;;;15.80;99.90;;;;;;5269688;28;20036;-69
2022/06/03 01:27:26;;;;;;;13.88;9.38;;;15.60;99.90;;;;;;5269923;28;20028;-69
2022/06/03 01:30:15;;;;;;;9.90;8.32;;;15.80;99.90;;;;;;5269707;28;20438;-70
2022/06/03 01:32:58;;;;;;;16.65;10.55;;;15.60;99.90;;;;;;5269732;28;20421;-69
2022/06/03 01:36:01;;;;;;;14.60;9.70;;;15.60;99.90;;;;;;5269664;28;20028;-70
2022/06/03 01:39:02;;;;;;;12.65;9.02;;;15.80;99.90;;;;;;5255384;28;20445;-69
2022/06/03 01:42:08;;;;;;;11.05;8.32;;;15.70;99.90;;;;;;5269506;28;20035;-69
2022/06/03 01:44:52;;;;;;;10.10;8.35;;;15.70;99.90;;;;;;5258427;28;20052;-69
2022/06/03 01:47:45;;;;;;;9.68;8.38;;;15.80;99.90;;;;;;5269765;28;20028;-72
2022/06/03 01:50:41;;;;;;;14.30;9.45;;;15.80;99.90;;;;;;5269110;28;20466;-69
2022/06/03 01:53:39;;;;;;;12.02;8.85;;;15.50;99.90;;;;;;5270941;28;20065;-70
2022/06/03 01:56:28;;;;;;;13.68;9.25;;;15.70;99.90;;;;;;5270150;28;20027;-70
2022/06/03 01:59:28;;;;;;;16.45;10.07;;;15.40;99.90;;;;;;5269928;28;20387;-70
2022/06/03 02:02:50;;;;;;;14.75;10.15;;;15.40;99.90;;;;;;5269872;28;20491;-70
2022/06/03 02:05:35;;;;;;;14.77;10.52;;;15.60;99.90;;;;;;5269474;28;20395;-74
2022/06/03 02:08:23;;;;;;;14.55;11.20;;;15.60;99.90;;;;;;5267916;28;20056;-69
2022/06/03 02:11:09;;;;;;;15.57;11.05;;;15.80;99.90;;;;;;5269115;28;20038;-75
2022/06/03 02:13:54;;;;;;;12.48;9.60;;;15.90;99.90;;;;;;5268872;28;20573;-69
2022/06/03 02:16:40;;;;;;;18.33;10.90;;;15.60;99.90;;;;;;5269196;28;20032;-72
2022/06/03 02:19:48;;;;;;;21.08;11.52;;;15.60;99.90;;;;;;5268992;28;20047;-69
2022/06/03 02:22:43;;;;;;;16.52;12.48;;;15.70;99.90;;;;;;5267776;28;20028;-70
2022/06/03 02:25:49;;;;;;;14.57;11.70;;;15.70;99.90;;;;;;5268983;28;20036;-69
2022/06/03 02:30:24;;;;;;;18.80;12.95;;;15.90;99.90;;;;;;5258270;28;20032;-74
2022/06/03 02:32:00;;;;;;;21.25;14.93;;;16.00;99.90;;;;;;5268899;28;20173;-69
2022/06/03 02:34:58;;;;;;;26.83;15.93;;;16.10;99.90;;;;;;5267625;28;20078;-69
2022/06/03 02:37:38;;;;;;;23.42;16.27;;;16.30;99.90;;;;;;5267644;28;20021;-70
2022/06/03 02:40:38;;;;;;;21.17;16.25;;;16.50;99.90;;;;;;5267462;28;20036;-69
2022/06/03 02:43:38;;;;;;;18.90;16.17;;;16.60;99.90;;;;;;5268779;28;20025;-70
2022/06/03 02:46:43;;;;;;;27.15;17.38;;;16.80;99.90;;;;;;5268938;28;20089;-75
2022/06/03 02:49:37;;;;;;;23.30;18.17;;;16.90;99.90;;;;;;5268838;28;20103;-70
2022/06/03 02:52:23;;;;;;;36.63;17.95;;;16.80;99.90;;;;;;5239903;28;20045;-70
2022/06/03 02:55:26;;;;;;;26.77;19.13;;;16.90;99.90;;;;;;5268718;28;20364;-75
2022/06/03 02:58:22;;;;;;;27.33;18.77;;;17.10;99.90;;;;;;5267391;28;20032;-70
2022/06/03 03:01:14;;;;;;;27.38;21.00;;;16.90;99.90;;;;;;5268627;28;20024;-70
2022/06/03 03:04:15;;;;;;;28.17;20.15;;;17.40;99.90;;;;;;5271979;28;20028;-70
2022/06/03 03:07:13;;;;;;;30.42;23.67;;;17.30;99.90;;;;;;5272686;28;20030;-70
2022/06/03 03:10:03;;;;;;;33.17;21.15;;;17.80;99.90;;;;;;5272644;28;20024;-70
2022/06/03 03:12:49;;;;;;;36.47;21.88;;;17.50;99.90;;;;;;5272256;28;20511;-71
2022/06/03 03:15:52;;;;;;;34.75;23.25;;;17.60;99.90;;;;;;5272453;28;20367;-71
2022/06/03 03:19:10;;;;;;;33.92;25.08;;;17.60;99.90;;;;;;5248417;28;20040;-70
2022/06/03 03:21:47;;;;;;;33.53;23.67;;;17.70;99.90;;;;;;5272291;28;20111;-71
2022/06/03 03:24:47;;;;;;;39.55;24.85;;;17.80;99.90;;;;;;5272223;28;20119;-71
2022/06/03 03:27:23;;;;;;;32.38;26.35;;;17.90;99.90;;;;;;5240542;28;20123;-70
2022/06/03 03:29:54;;;;;;;40.28;26.77;;;18.20;99.90;;;;;;5270875;28;20046;-71
2022/06/03 03:33:04;;;;;;;40.55;26.67;;;18.20;99.90;;;;;;5271920;28;20008;-71
2022/06/03 03:35:54;;;;;;;31.08;23.67;;;18.30;99.90;;;;;;5272049;28;20027;-70
2022/06/03 03:39:00;;;;;;;35.25;24.98;;;18.40;99.90;;;;;;5272050;28;20032;-74
2022/06/03 03:42:00;;;;;;;35.97;26.52;;;18.30;99.90;;;;;;5271986;28;20376;-71
2022/06/03 03:44:42;;;;;;;32.08;25.45;;;18.60;99.90;;;;;;5271685;28;20051;-70
2022/06/03 03:47:21;;;;;;;34.22;23.77;;;18.60;99.90;;;;;;5271843;28;20017;-71
2022/06/03 03:50:24;;;;;;;32.75;25.05;;;18.60;99.90;;;;;;5271698;28;20482;-72
2022/06/03 03:53:16;;;;;;;37.63;25.50;;;19.00;99.90;;;;;;5266084;28;20029;-71
2022/06/03 03:56:30;;;;;;;42.13;25.27;;;19.20;99.90;;;;;;5271715;28;20032;-71
2022/06/03 03:59:33;;;;;;;33.45;25.23;;;19.30;99.90;;;;;;5271660;28;20091;-70
2022/06/03 04:02:09;;;;;;;30.60;24.00;;;19.40;99.90;;;;;;5271513;28;20040;-71
2022/06/03 04:05:10;;;;;;;34.58;23.80;;;19.40;99.90;;;;;;5271448;28;20032;-71
2022/06/03 04:08:06;;;;;;;36.80;21.52;;;19.50;99.90;;;;;;5271431;28;20012;-71
2022/06/03 04:10:52;;;;;;;34.25;22.48;;;19.50;99.90;;;;;;5270262;28;20016;-71
2022/06/03 04:13:43;;;;;;;30.25;23.23;;;19.60;99.90;;;;;;5269342;28;20055;-71
2022/06/03 04:16:51;;;;;;;27.38;20.40;;;19.70;99.90;;;;;;5270997;28;20031;-70
2022/06/03 04:19:49;;;;;;;30.48;20.25;;;19.70;99.90;;;;;;5271105;28;20115;-71
2022/06/03 04:23:04;;;;;;;28.60;20.58;;;19.70;99.90;;;;;;5270965;28;20016;-71
2022/06/03 04:25:59;;;;;;;29.60;18.65;;;19.80;99.90;;;;;;5267882;28;20056;-70
2022/06/03 04:28:38;;;;;;;29.23;18.67;;;19.80;99.90;;;;;;5271032;28;20059;-71
2022/06/03 04:32:05;;;;;;;32.38;18.55;;;19.90;99.90;;;;;;5270932;28;20028;-71
2022/06/03 04:34:38;;;;;;;28.90;17.85;;;19.90;99.90;;;;;;5206256;28;20042;-71
2022/06/03 04:37:20;;;;;;;25.95;18.83;;;20.00;99.90;;;;;;5206398;28;20026;-71
2022/06/03 04:40:28;;;;;;;23.42;18.35;;;19.90;99.90;;;;;;5206232;28;20049;-71
2022/06/03 04:43:19;;;;;;;32.35;16.55;;;20.00;99.90;;;;;;5206232;28;20116;-71
2022/06/03 04:45:55;;;;;;;27.88;17.20;;;20.10;99.90;;;;;;5206355;28;20056;-74
2022/06/03 04:48:43;;;;;;;31.38;16.67;;;20.10;99.90;;;;;;5206146;28;20505;-71
2022/06/03 04:51:47;;;;;;;25.65;14.98;;;20.10;99.90;;;;;;5206194;28;20087;-71
2022/06/03 04:54:45;;;;;;;23.77;14.88;;;20.20;99.90;;;;;;5189455;28;20029;-71
2022/06/03 04:57:48;;;;;;;26.23;15.90;;;20.30;99.90;;;;;;5189450;28;20066;-74
2022/06/03 05:00:31;;;;;;;29.80;15.43;;;20.30;99.90;;;;;;5206802;28;20025;-75
2022/06/03 05:03:33;;;;;;;27.20;14.93;;;20.40;99.90;;;;;;5222015;28;20033;-70
2022/06/03 05:06:26;;;;;;;23.15;14.85;;;20.50;99.90;;;;;;5270046;28;20036;-71
2022/06/03 05:08:57;;;;;;;24.05;13.85;;;20.60;99.90;;;;;;5290327;28;20119;-71
2022/06/03 05:12:03;;;;;;;26.38;14.30;;;20.70;99.90;;;;;;5290047;28;20457;-71
2022/06/03 05:15:07;;;;;;;20.52;12.88;;;20.70;99.90;;;;;;5290916;28;20448;-76
2022/06/03 05:17:57;;;;;;;25.95;13.10;;;21.00;99.90;;;;;;5291266;28;20536;-70
2022/06/03 05:21:04;;;;;;;23.30;11.90;;;21.20;99.90;;;;;;5290968;28;20455;-72
2022/06/03 05:24:13;;;;;;;23.67;12.63;;;21.20;99.90;;;;;;5291056;28;20039;-70
2022/06/03 05:27:08;;;;;;;20.48;12.20;;;21.30;99.90;;;;;;5290267;28;20447;-71
2022/06/03 05:30:04;;;;;;;21.80;11.57;;;21.50;99.90;;;;;;5286241;28;20516;-71
2022/06/03 05:33:08;;;;;;;22.30;11.32;;;21.80;99.90;;;;;;5285218;28;20024;-70
2022/06/03 05:36:12;;;;;;;24.83;11.55;;;21.70;99.90;;;;;;5279190;28;20042;-70
2022/06/03 05:39:17;;;;;;;24.90;11.10;;;21.70;99.90;;;;;;5279789;28;20026;-71
2022/06/03 05:44:58;;;;;;;25.73;12.13;;;21.70;99.90;;;;;;5280047;28;20075;-75
2022/06/03 05:48:01;;;;;;;19.98;11.18;;;21.80;99.90;;;;;;5277610;28;20020;-72
2022/06/03 05:50:49;;;;;;;24.85;10.40;;;21.80;99.90;;;;;;5269585;28;20032;-71
2022/06/03 05:53:25;;;;;;;24.27;10.23;;;21.60;99.90;;;;;;5284070;28;20027;-70
2022/06/03 05:56:24;;;;;;;17.95;10.38;;;21.70;99.90;;;;;;5279888;28;20019;-71
2022/06/03 05:59:16;;;;;;;23.08;10.82;;;21.70;99.90;;;;;;5269348;28;20045;-74
2022/06/03 06:02:07;;;;;;;21.83;10.13;;;21.60;99.90;;;;;;5288733;28;20028;-75
2022/06/03 06:05:14;;;;;;;16.30;9.25;;;21.80;99.90;;;;;;5284904;28;20078;-75
2022/06/03 06:08:09;;;;;;;22.05;10.60;;;21.70;99.90;;;;;;5281024;28;20075;-75
2022/06/03 06:10:40;;;;;;;16.90;10.15;;;21.70;99.90;;;;;;5289493;28;20027;-76
2022/06/03 06:13:49;;;;;;;18.50;9.70;;;21.70;99.90;;;;;;5289166;28;20463;-71
2022/06/03 06:16:37;;;;;;;24.57;9.80;;;21.80;99.90;;;;;;5283246;28;20030;-71
2022/06/03 06:19:14;;;;;;;21.90;9.20;;;22.00;99.90;;;;;;5288304;28;20023;-71
2022/06/03 06:22:09;;;;;;;17.75;9.52;;;22.10;99.90;;;;;;5278274;28;20027;-72
2022/06/03 06:24:56;;;;;;;22.40;9.48;;;22.10;99.90;;;;;;5278733;28;20484;-76
2022/06/03 06:27:55;;;;;;;19.08;8.63;;;22.20;99.90;;;;;;5275306;28;20035;-71
2022/06/03 06:30:30;;;;;;;23.98;9.77;;;22.20;99.90;;;;;;5274449;28;20111;-75
2022/06/03 06:33:22;;;;;;;22.95;10.10;;;22.00;99.90;;;;;;5288545;28;20148;-78
2022/06/03 06:35:53;;;;;;;23.92;9.50;;;22.30;99.90;;;;;;5282015;28;20062;-81
2022/06/03 06:38:42;;;;;;;19.92;8.95;;;22.30;99.90;;;;;;5293889;28;20051;-80
2022/06/03 06:41:35;;;;;;;22.45;9.73;;;22.20;99.90;;;;;;5293929;28;20020;-71
2022/06/03 06:44:31;;;;;;;21.30;9.00;;;22.20;99.90;;;;;;5293499;28;20043;-74
2022/06/03 06:47:33;;;;;;;18.50;9.77;;;22.20;99.90;;;;;;5241639;28;20040;-80
2022/06/03 06:51:02;;;;;;;20.13;8.60;;;22.50;99.90;;;;;;5285601;28;20027;-73
2022/06/03 06:53:47;;;;;;;20.58;8.70;;;22.80;99.90;;;;;;5239345;28;20426;-73
2022/06/03 06:56:46;;;;;;;20.92;8.02;;;23.20;99.90;;;;;;5286520;28;20024;-71
2022/06/03 06:59:43;;;;;;;20.52;8.20;;;23.00;99.90;;;;;;5288983;28;20036;-79
2022/06/03 07:02:33;;;;;;;18.08;8.90;;;22.80;99.90;;;;;;5282674;28;20024;-72
2022/06/03 07:05:40;;;;;;;22.17;8.55;;;23.00;99.90;;;;;;5283868;28;20039;-72
2022/06/03 07:08:19;;;;;;;19.65;7.93;;;23.50;99.90;;;;;;5250134;27;20428;-72
2022/06/03 07:11:46;;;;;;;24.20;8.30;;;23.50;99.90;;;;;;5284738;28;20020;-71
2022/06/03 07:14:28;;;;;;;21.35;7.03;;;23.60;99.90;;;;;;5207021;28;20361;-72
2022/06/03 07:20:22;;;;;;;19.50;8.10;;;23.50;99.90;;;;;;5207190;28;20044;-76
2022/06/03 07:22:56;;;;;;;26.70;7.72;;;23.60;99.90;;;;;;5184525;28;20081;-79
2022/06/03 07:25:31;;;;;;;22.67;7.20;;;23.70;99.90;;;;;;5197437;28;20095;-76
2022/06/03 07:28:45;;;;;;;23.35;6.85;;;23.90;99.90;;;;;;5187204;28;20034;-78
2022/06/03 07:31:16;;;;;;;19.38;6.60;;;24.00;99.90;;;;;;5129550;28;20063;-74
2022/06/03 07:33:54;;;;;;;25.27;7.07;;;24.30;99.90;;;;;;5146215;28;20479;-77
2022/06/03 07:36:30;;;;;;;14.10;6.13;;;24.60;99.90;;;;;;5112147;29;20039;-78
2022/06/03 07:39:37;;;;;;;19.23;6.28;;;24.70;99.90;;;;;;5125931;28;20035;-78
2022/06/03 07:42:27;;;;;;;22.20;6.90;;;24.70;99.90;;;;;;5145996;28;20134;-70
2022/06/03 07:45:26;;;;;;;18.40;6.65;;;24.90;99.90;;;;;;5195227;28;20459;-78
2022/06/03 08:14:04;;;;;;;19.00;5.72;;;24.70;99.90;;;;;;5312875;27;20453;-72
2022/06/03 08:16:40;;;;;;;14.40;5.70;;;25.60;99.90;;;;;;5318436;27;20023;-72
2022/06/03 08:19:21;;;;;;;22.92;6.22;;;25.60;99.90;;;;;;5287267;28;20034;-72
2022/06/03 08:21:55;;;;;;;26.95;6.05;;;25.20;99.90;;;;;;5321117;27;20029;-72
2022/06/03 08:24:30;;;;;;;19.52;5.50;;;25.10;99.90;;;;;;5324896;27;20084;-72
2022/06/03 08:27:12;;;;;;;20.27;6.20;;;25.40;99.90;;;;;;5307046;27;20022;-72
2022/06/03 08:29:49;;;;;;;19.98;5.65;;;25.10;99.90;;;;;;5307458;28;20035;-71
2022/06/03 08:32:35;;;;;;;22.85;6.47;;;24.90;99.90;;;;;;5308107;27;20492;-72
2022/06/03 08:35:28;;;;;;;19.23;4.95;;;25.00;99.90;;;;;;5286353;28;20027;-71
2022/06/03 08:38:19;;;;;;;21.23;5.70;;;24.80;99.90;;;;;;5285972;28;20028;-72
2022/06/03 08:40:56;;;;;;;17.42;5.35;;;25.10;99.90;;;;;;5286371;28;20032;-71
2022/06/03 08:43:39;;;;;;;16.17;5.68;;;25.20;99.90;;;;;;5274883;28;20101;-72
2022/06/03 08:46:15;;;;;;;23.08;5.78;;;25.40;99.90;;;;;;5286410;28;20024;-72
2022/06/03 08:48:51;;;;;;;21.30;5.88;;;25.10;99.90;;;;;;5299259;28;20346;-72
2022/06/03 08:51:28;;;;;;;17.05;5.60;;;25.10;99.90;;;;;;5294916;28;20026;-72
2022/06/03 08:54:37;;;;;;;14.93;5.50;;;25.70;99.90;;;;;;5281581;28;20368;-72
2022/06/03 08:57:16;;;;;;;21.52;4.70;;;26.00;99.90;;;;;;5286191;28;20019;-71
2022/06/03 08:59:53;;;;;;;15.98;4.57;;;25.60;99.90;;;;;;5304961;28;20683;-71
2022/06/03 09:02:32;;;;;;;21.75;5.03;;;25.60;99.90;;;;;;5287298;28;20036;-71
2022/06/03 09:05:23;;;;;;;19.45;5.28;;;25.80;99.90;;;;;;5307073;28;20020;-71
2022/06/03 09:08:04;;;;;;;24.35;5.20;;;25.60;99.90;;;;;;5307555;28;20363;-70
2022/06/03 09:10:55;;;;;;;20.98;5.18;;;25.70;99.90;;;;;;5290184;28;20407;-73
2022/06/03 09:13:39;;;;;;;17.17;5.63;;;25.70;99.90;;;;;;5278200;28;20049;-69
2022/06/03 09:16:14;;;;;;;15.55;4.93;;;26.00;99.90;;;;;;5267851;28;20379;-72
2022/06/03 09:18:51;;;;;;;16.48;5.57;;;25.90;99.90;;;;;;5271589;28;20022;-72
2022/06/03 09:21:35;;;;;;;18.17;5.03;;;26.10;99.90;;;;;;5271863;28;20459;-72
2022/06/03 09:24:22;;;;;;;14.45;5.80;;;25.90;99.90;;;;;;5278113;28;20194;-71
2022/06/03 09:26:57;;;;;;;16.75;5.38;;;26.10;99.90;;;;;;5292307;28;20023;-71
2022/06/03 09:29:29;;;;;;;15.75;5.03;;;26.30;99.90;;;;;;5292882;28;20110;-72
2022/06/03 09:32:03;;;;;;;19.13;5.32;;;25.90;99.90;;;;;;5274878;28;20024;-72
2022/06/03 09:35:04;;;;;;;14.82;5.30;;;26.00;99.90;;;;;;5271302;28;20520;-71
2022/06/03 09:37:41;;;;;;;18.95;5.43;;;26.20;99.90;;;;;;5271656;28;20024;-70
2022/06/03 09:40:22;;;;;;;18.17;5.47;;;26.00;99.90;;;;;;5281127;28;20063;-71
2022/06/03 09:43:01;;;;;;;14.32;5.13;;;26.00;99.90;;;;;;5282004;28;20085;-71
2022/06/03 09:45:34;;;;;;;23.83;5.93;;;25.90;99.90;;;;;;5255681;28;20375;-69
2022/06/03 09:48:05;;;;;;;20.70;5.63;;;26.30;99.90;;;;;;5270832;28;20012;-71
2022/06/03 09:50:36;;;;;;;14.02;5.03;;;26.60;99.90;;;;;;5271224;28;20024;-72
2022/06/03 09:53:09;;;;;;;19.80;5.60;;;26.30;99.90;;;;;;5271119;28;20035;-72
2022/06/03 09:55:47;;;;;;;24.63;5.68;;;25.90;99.90;;;;;;5271298;28;20024;-70
2022/06/03 09:58:22;;;;;;;12.90;5.00;;;26.10;99.90;;;;;;5279238;28;20024;-71
2022/06/03 10:00:55;;;;;;;18.85;5.60;;;26.50;99.90;;;;;;5287738;28;20343;-69
2022/06/03 10:03:27;;;;;;;18.15;5.20;;;26.40;99.90;;;;;;5272857;28;20046;-70
2022/06/03 10:05:59;;;;;;;20.55;5.20;;;26.20;99.90;;;;;;5269887;28;20031;-69
2022/06/03 10:14:11;;;;;;;20.67;6.07;;;25.90;99.90;;;;;;5227293;28;20650;-70
2022/06/03 10:16:42;;;;;;;16.17;4.45;;;26.30;99.90;;;;;;5228579;28;20104;-69
2022/06/03 10:19:13;;;;;;;19.58;5.93;;;26.00;99.90;;;;;;5228859;28;20021;-70
2022/06/03 10:21:54;;;;;;;15.30;4.95;;;26.30;99.90;;;;;;5228361;28;20044;-71
2022/06/03 10:24:32;;;;;;;17.13;5.20;;;26.60;99.90;;;;;;5228191;28;20053;-70
2022/06/03 10:27:05;;;;;;;21.70;5.88;;;26.50;99.90;;;;;;5228367;28;20024;-69
2022/06/03 10:29:50;;;;;;;21.67;5.40;;;26.30;99.90;;;;;;5228812;28;20025;-70
2022/06/03 10:32:22;;;;;;;14.15;5.20;;;26.50;99.90;;;;;;5228624;28;20051;-70
2022/06/03 10:35:04;;;;;;;19.60;5.57;;;26.70;99.90;;;;;;5228693;28;20431;-70
2022/06/03 10:37:35;;;;;;;19.83;5.30;;;26.50;99.90;;;;;;5228660;28;20028;-71
2022/06/03 10:40:09;;;;;;;17.38;5.75;;;27.10;99.90;;;;;;5228738;28;20099;-71
2022/06/03 10:42:40;;;;;;;16.33;5.75;;;27.20;99.90;;;;;;5228198;28;20033;-71
2022/06/03 10:45:11;;;;;;;16.25;5.28;;;27.10;99.90;;;;;;5228377;28;20513;-70
2022/06/03 10:47:47;;;;;;;21.38;6.15;;;27.00;99.90;;;;;;5228285;28;20041;-70
2022/06/03 10:50:35;;;;;;;19.42;6.05;;;27.40;99.90;;;;;;5228494;28;20468;-69
2022/06/03 11:02:04;;;;;;;20.85;6.05;;;26.50;99.90;;;;;;5228315;28;20444;-70
2022/06/03 11:04:39;;;;;;;20.63;6.43;;;26.60;99.90;;;;;;5227826;28;20474;-71
2022/06/03 11:07:25;;;;;;;22.23;5.70;;;26.60;99.90;;;;;;5227998;28;20033;-70
2022/06/03 11:09:59;;;;;;;19.40;5.70;;;27.20;99.90;;;;;;5227999;28;20116;-69
2022/06/03 11:12:31;;;;;;;23.48;5.85;;;27.10;99.90;;;;;;5242751;28;20050;-70
2022/06/03 11:15:21;;;;;;;23.58;5.78;;;27.10;99.90;;;;;;5264433;28;20032;-70
2022/06/03 11:17:52;;;;;;;22.63;6.05;;;27.30;99.90;;;;;;5268961;28;20013;-71
2022/06/03 11:20:39;;;;;;;24.20;6.03;;;27.50;99.90;;;;;;5251246;28;20036;-70
2022/06/03 11:23:12;;;;;;;24.45;7.07;;;27.30;99.90;;;;;;5269112;28;20407;-70
2022/06/03 11:25:53;;;;;;;27.80;6.13;;;27.30;99.90;;;;;;5269322;28;20099;-71
2022/06/03 11:28:29;;;;;;;21.60;5.68;;;26.90;99.90;;;;;;5269188;28;20036;-70
2022/06/03 11:31:20;;;;;;;18.63;6.53;;;25.90;99.90;;;;;;5269182;28;20020;-71
2022/06/03 11:34:08;;;;;;;23.77;6.45;;;25.90;99.90;;;;;;5269006;28;20024;-69
2022/06/03 11:36:45;;;;;;;16.77;6.35;;;25.90;99.90;;;;;;5268854;28;20077;-71
2022/06/03 11:39:40;;;;;;;31.30;7.38;;;25.80;99.90;;;;;;5269049;28;20038;-70
2022/06/03 11:42:11;;;;;;;15.07;6.05;;;26.10;99.90;;;;;;5268959;28;20083;-70
2022/06/03 11:45:12;;;;;;;15.73;5.65;;;26.10;99.90;;;;;;5268903;28;20097;-70
2022/06/03 11:47:58;;;;;;;20.40;6.72;;;25.70;99.90;;;;;;5264023;28;20039;-71
2022/06/03 11:50:31;;;;;;;25.23;6.30;;;26.30;99.90;;;;;;5269003;28;20028;-70
2022/06/03 11:53:02;;;;;;;25.48;6.68;;;26.10;99.90;;;;;;5268904;28;20035;-71
2022/06/03 11:55:34;;;;;;;24.55;6.65;;;26.00;99.90;;;;;;5268921;28;20020;-69
2022/06/03 11:58:27;;;;;;;17.90;6.75;;;25.90;99.90;;;;;;5268850;28;20134;-71
2022/06/03 12:01:06;;;;;;;21.65;6.57;;;25.70;99.90;;;;;;5268819;28;20024;-71
2022/06/03 12:03:45;;;;;;;18.45;6.50;;;25.70;99.90;;;;;;5268432;28;20443;-70
2022/06/03 12:06:36;;;;;;;;;;;25.70;99.90;;;;;;5251086;28;20028;-71
2022/06/03 12:09:23;;;;;;;15.98;6.68;;;25.80;99.90;;;;;;5267988;28;19908;-70
2022/06/03 12:15:17;;;;;;;22.40;6.72;;;26.20;99.90;;;;;;5269045;28;20121;-71
2022/06/03 12:17:48;;;;;;;23.50;6.70;;;26.70;99.90;;;;;;5268526;28;20062;-70
2022/06/03 12:20:30;;;;;;;20.80;6.00;;;26.50;99.90;;;;;;5268706;28;20024;-70
2022/06/03 12:23:13;;;;;;;20.23;6.35;;;26.60;99.90;;;;;;5268378;28;20070;-71
2022/06/03 12:26:06;;;;;;;21.60;6.43;;;26.40;99.90;;;;;;5268559;28;20032;-70
2022/06/03 12:28:37;;;;;;;23.88;6.80;;;26.20;99.90;;;;;;5268571;28;20020;-70
2022/06/03 12:31:20;;;;;;;19.85;6.10;;;26.70;99.90;;;;;;5268507;28;20491;-70
2022/06/03 12:34:11;;;;;;;23.58;7.07;;;26.50;99.90;;;;;;5267806;28;20066;-71
2022/06/03 12:36:49;;;;;;;19.92;6.60;;;26.40;99.90;;;;;;5256583;28;20035;-70
2022/06/03 12:39:28;;;;;;;20.45;6.30;;;27.00;99.90;;;;;;5262432;28;20036;-69
2022/06/03 12:42:37;;;;;;;17.88;5.70;;;26.60;99.90;;;;;;5236052;28;20410;-69
2022/06/03 12:45:13;;;;;;;20.30;6.10;;;26.80;99.90;;;;;;5256325;28;20400;-69
2022/06/03 12:47:45;;;;;;;22.83;6.72;;;27.20;99.90;;;;;;5258935;28;20025;-70
2022/06/03 12:50:33;;;;;;;23.00;7.57;;;27.10;99.90;;;;;;5260876;28;20034;-71
2022/06/03 12:53:27;;;;;;;20.80;5.95;;;26.80;99.90;;;;;;5253007;28;20464;-70
2022/06/03 12:56:02;;;;;;;15.82;5.95;;;26.40;99.90;;;;;;5272154;28;20016;-70
2022/06/03 12:58:52;;;;;;;25.50;7.30;;;26.30;99.90;;;;;;5271202;28;20027;-69
2022/06/03 13:01:45;;;;;;;18.17;6.55;;;25.90;99.90;;;;;;5259480;28;20020;-69
2022/06/03 13:04:43;;;;;;;25.08;6.47;;;25.50;99.90;;;;;;5267366;28;20036;-70
2022/06/03 13:07:54;;;;;;;18.92;7.18;;;25.20;99.90;;;;;;5272440;28;20027;-70
2022/06/03 13:10:28;;;;;;;16.77;7.00;;;24.90;99.90;;;;;;5271128;28;20026;-69
2022/06/03 13:13:20;;;;;;;17.52;6.90;;;25.50;99.90;;;;;;5257604;28;20183;-71
2022/06/03 13:15:52;;;;;;;19.90;7.65;;;25.20;99.90;;;;;;5267725;28;20379;-71
2022/06/03 13:18:43;;;;;;;19.77;7.32;;;25.10;99.90;;;;;;5267303;28;20035;-70
2022/06/03 13:21:23;;;;;;;22.55;7.10;;;24.60;99.90;;;;;;5246307;28;20060;-69
2022/06/03 13:23:59;;;;;;;27.88;8.82;;;24.40;99.90;;;;;;5250715;28;20116;-70
2022/06/03 13:26:29;;;;;;;20.77;7.22;;;24.40;99.90;;;;;;5250752;28;20086;-70
2022/06/03 13:29:04;;;;;;;18.10;7.70;;;24.50;99.90;;;;;;5250598;28;20032;-69
2022/06/03 13:31:41;;;;;;;17.52;6.90;;;24.40;99.90;;;;;;5250591;28;20103;-70
2022/06/03 13:34:16;;;;;;;19.60;6.90;;;24.30;99.90;;;;;;5250379;28;20025;-69
2022/06/03 13:36:50;;;;;;;23.63;7.78;;;24.20;99.90;;;;;;5250491;28;20025;-71
2022/06/03 13:39:23;;;;;;;18.60;7.18;;;24.20;99.90;;;;;;5250546;28;20025;-70
2022/06/03 13:45:02;;;;;;;16.92;7.80;;;23.90;99.90;;;;;;5250592;28;20121;-69
2022/06/03 13:47:47;;;;;;;23.63;8.07;;;23.90;99.90;;;;;;5250407;28;20380;-69
2022/06/03 13:50:30;;;;;;;18.42;7.47;;;23.50;99.90;;;;;;5250329;28;20372;-70
2022/06/03 13:53:04;;;;;;;20.73;8.65;;;23.60;99.90;;;;;;5250132;28;20032;-70
2022/06/03 13:55:38;;;;;;;25.10;8.50;;;23.40;99.90;;;;;;5250117;28;20035;-69
2022/06/03 13:58:09;;;;;;;18.30;8.07;;;23.40;99.90;;;;;;5250191;28;20099;-71
2022/06/03 14:00:51;;;;;;;31.98;9.23;;;23.20;99.90;;;;;;5250017;28;20103;-69
2022/06/03 14:03:28;;;;;;;21.67;8.30;;;23.30;99.90;;;;;;5249597;28;20064;-69
2022/06/03 14:06:13;;;;;;;25.08;9.18;;;23.00;99.90;;;;;;5250125;28;20032;-70
2022/06/03 14:08:58;;;;;;;29.70;8.75;;;23.20;99.90;;;;;;5249853;28;20063;-70
2022/06/03 14:11:55;;;;;;;22.95;8.77;;;23.20;99.90;;;;;;5249770;28;20013;-71
2022/06/03 14:14:44;;;;;;;23.02;8.73;;;23.10;99.90;;;;;;5249741;28;20115;-69
2022/06/03 14:17:28;;;;;;;29.55;8.40;;;23.40;99.90;;;;;;5249683;28;20032;-70
2022/06/03 14:20:16;;;;;;;29.13;8.88;;;22.90;99.90;;;;;;5231668;28;20036;-69
2022/06/03 14:23:03;;;;;;;16.80;7.75;;;23.20;99.90;;;;;;5249577;28;20043;-69
2022/06/03 14:25:40;;;;;;;16.95;7.82;;;23.50;99.90;;;;;;5249664;28;20021;-70
2022/06/03 14:28:14;;;;;;;21.50;8.50;;;23.40;99.90;;;;;;5231624;28;20032;-70
2022/06/03 14:31:11;;;;;;;20.73;8.20;;;23.50;99.90;;;;;;5249453;28;20052;-70
2022/06/03 14:33:48;;;;;;;23.40;8.30;;;23.70;99.90;;;;;;5249335;28;20108;-69
2022/06/03 14:36:20;;;;;;;26.65;8.60;;;23.30;99.90;;;;;;5231438;28;20138;-70
2022/06/03 14:39:20;;;;;;;19.95;8.05;;;23.30;99.90;;;;;;5249302;28;20476;-69
2022/06/03 14:41:55;;;;;;;21.13;8.15;;;23.10;99.90;;;;;;5235521;28;20048;-69
2022/06/03 14:44:29;;;;;;;19.67;7.78;;;23.20;99.90;;;;;;5231022;28;20419;-69
2022/06/03 14:47:12;;;;;;;23.65;9.02;;;23.20;99.90;;;;;;5249072;28;20021;-70
2022/06/03 14:50:11;;;;;;;26.30;8.50;;;23.20;99.90;;;;;;5249095;28;20020;-70
2022/06/03 14:53:12;;;;;;;14.77;7.38;;;23.30;99.90;;;;;;5248932;28;20013;-69
2022/06/03 14:55:51;;;;;;;20.42;8.40;;;23.00;99.90;;;;;;5245977;28;20094;-70
2022/06/03 14:58:33;;;;;;;17.63;8.77;;;22.90;99.90;;;;;;5248898;28;20016;-70
2022/06/03 15:01:44;;;;;;;25.88;8.90;;;22.90;99.90;;;;;;5248819;28;20028;-70
2022/06/03 15:04:34;;;;;;;21.30;8.55;;;23.00;99.90;;;;;;5248428;28;20035;-71
2022/06/03 15:07:19;;;;;;;20.00;8.02;;;22.80;99.90;;;;;;5248665;28;20029;-71
2022/06/03 15:09:55;;;;;;;21.95;8.55;;;22.80;99.90;;;;;;5248724;28;20357;-69
2022/06/03 15:12:31;;;;;;;29.90;10.18;;;22.90;99.90;;;;;;5247718;28;20048;-71